Yankton, SD

19:08 CDT le 21 septembre 2014 (GMT -0500)
Gurney Municipal | Change Station
CLOSE
Current Station
Aéroport
Location: Yankton,
Altitude: 1306 ft
Stations météo à proximité

Alt. 1306 ft 42.92 °N, 97.39 °W | Updated 13 minutes ago

Ciel dégagé
Ciel dégagé
64 ° F
Paraît 64 ° F
N
7
Vent Variable Vent de Nord

Aujourd'hui
Haut(e) -- | Bas -- ° F
--% Risque de précip.
Hier
Haut(e) -- | Bas -- ° F
Precip. -- pouce
7:15 AM 7:28 PM
Lune descendante, 5% visible
Pression 30.24 pouce
Visibilité 10.0 Miles terrestres
Nuages Ciel dégagé
Point de rosée 46 ° F
Humidité 52%
Précipitations 0.00 pouce
Profondeur de la couche neigeuse 0 in
UV 0 sur 12
Pollen 5.50 sur 12
Qualité de l'air Non disponible.
Flu Activity Non disponible.
METAR KYKN 212355Z AUTO 35006KT 10SM CLR 18/08 A3024 RMK AO1 10210 20180 402500090 54000

More Conditions Fewer Conditions

Pression 30.24 pouce
Visibilité 10.0 Miles terrestres
Nuages Ciel dégagé
Point de rosée 46 ° F
Humidité 52%
Précipitations 0.00 pouce
Profondeur de la couche neigeuse 0 in
UV 0 sur 12
Pollen 5.50 sur 12
Qualité de l'air Non disponible.
Flu Activity Non disponible.
METAR KYKN 212355Z AUTO 35006KT 10SM CLR 18/08 A3024 RMK AO1 10210 20180 402500090 54000

More Conditions Fewer Conditions

10-Day Weather Forecast

Almanac

Astronomie

Sep. 21, 2014 Lever Coucher
Temps réel 07:15 CDT 19:28 CDT
Crépuscule civil 06:47 CDT 19:56 CDT
Crépuscule nautique 06:14 CDT 20:29 CDT
Crépuscule astronomique 05:40 CDT 21:03 CDT
Lune 04:47 CDT (9/21) 18:07 CDT (9/21)
Durée de lumière visible 13h 09m
Longueur du jour
12h 12m
Tomorrow will be 2m 54s shorter.
Lune descendante, 5% of the Moon is Illuminated
Aujourd'hui
Lune descendante
Sep 24
Nouveau
Oct 1
Premier quartier
Oct 8
Pleine lune
Oct 15
Dernier quartier

Extrêmes aujourd'hui

State Highs State Lows

Community

WunderPhotos

Upload Photos

1,755,309 Photos téléchargées !

WunderBlogs® & News

Nearby

Épaisseur de neige

Station Depth Altitude
Blind Park 0 in 6890 ft

Activité sismique

Ville Distance Mag. Time & Date
No recent earthquake activity has been reported nearby.
Minimum magnitude displayed is 2.5.

Températures des eaux côtières

Lieu Température
Aucun rapport de station

Stations météo à proximité